Time;durP1;ratioP1;P1;durP2;ratioP2;P2;SDS_P1;SDS_P2;PMS_P1;PMS_P2;Temp;Humidity;BMP_temperature;BMP_pressure;BME280_temperature;BME280_humidity;BME280_pressure;Samples;Min_cycle;Max_cycle;Signal;HPM_P1;HPM_P2
2022/12/20 00:04:22;;;;;;;33.83;19.87;;;2.50;99.90;;;;;;10373984;28;20196;-87
2022/12/20 00:09:24;;;;;;;39.37;21.57;;;2.40;99.90;;;;;;10373607;28;20234;-86
2022/12/20 00:14:27;;;;;;;31.67;16.13;;;2.30;99.90;;;;;;10414078;28;20219;-87
2022/12/20 00:19:29;;;;;;;34.07;18.37;;;2.30;99.90;;;;;;10414567;28;20265;-87
2022/12/20 00:24:32;;;;;;;32.60;19.67;;;2.30;99.90;;;;;;10396473;28;20225;-87
2022/12/20 00:29:34;;;;;;;34.50;19.10;;;2.40;99.90;;;;;;10396401;28;20258;-87
2022/12/20 00:34:37;;;;;;;40.00;21.30;;;2.30;99.90;;;;;;10412783;28;20285;-87
2022/12/20 00:39:39;;;;;;;33.83;20.10;;;2.20;99.90;;;;;;10378607;28;20204;-87
2022/12/20 00:44:42;;;;;;;35.90;19.40;;;1.90;99.90;;;;;;10355217;28;20212;-87
2022/12/20 00:49:44;;;;;;;31.40;18.43;;;1.70;99.90;;;;;;10355411;28;20235;-87
2022/12/20 00:54:46;;;;;;;45.87;22.57;;;1.60;99.90;;;;;;10393308;28;20249;-87
2022/12/20 00:59:49;;;;;;;34.77;20.53;;;1.50;99.90;;;;;;10395740;28;20235;-87
2022/12/20 01:04:52;;;;;;;33.20;18.33;;;1.40;99.90;;;;;;10395644;28;20208;-88
2022/12/20 01:09:55;;;;;;;38.13;20.60;;;1.30;99.90;;;;;;10413865;28;20223;-87
2022/12/20 01:14:58;;;;;;;29.90;18.60;;;1.20;99.90;;;;;;10394293;28;20239;-87
2022/12/20 01:20:00;;;;;;;35.90;19.70;;;1.20;99.90;;;;;;10390134;28;20231;-88
2022/12/20 01:25:03;;;;;;;36.13;20.77;;;1.10;99.90;;;;;;10359548;28;20335;-87
2022/12/20 01:30:06;;;;;;;35.30;19.77;;;1.00;99.90;;;;;;10412330;28;20212;-87
2022/12/20 01:35:09;;;;;;;31.83;18.73;;;1.10;99.90;;;;;;10397475;28;20731;-87
2022/12/20 01:40:11;;;;;;;29.17;17.50;;;1.20;99.90;;;;;;10397430;28;20572;-87
2022/12/20 01:45:24;;;;;;;37.37;18.77;;;1.30;99.90;;;;;;10396322;28;20216;-87
2022/12/20 01:50:27;;;;;;;33.07;19.37;;;1.30;99.90;;;;;;10384239;28;20281;-87
2022/12/20 01:55:30;;;;;;;33.00;19.23;;;1.20;99.90;;;;;;10396133;28;20251;-87
2022/12/20 02:00:33;;;;;;;40.70;20.20;;;1.30;99.90;;;;;;10380128;28;20254;-87
2022/12/20 02:05:44;;;;;;;33.73;19.13;;;1.30;99.90;;;;;;10359417;28;20278;-87
2022/12/20 02:10:55;;;;;;;35.23;20.97;;;1.40;99.90;;;;;;10392298;28;20255;-88
2022/12/20 02:15:59;;;;;;;39.10;19.60;;;1.40;99.90;;;;;;10373082;28;20260;-88
2022/12/20 02:21:13;;;;;;;36.57;19.30;;;1.40;99.90;;;;;;10363271;28;20269;-88
2022/12/20 02:26:18;;;;;;;33.47;18.30;;;1.40;99.90;;;;;;10396250;28;20219;-88
2022/12/20 02:31:28;;;;;;;38.40;19.30;;;1.30;99.90;;;;;;10393701;28;20578;-86
2022/12/20 02:36:32;;;;;;;32.03;18.13;;;1.40;99.90;;;;;;10394705;28;20317;-86
2022/12/20 02:41:40;;;;;;;34.57;20.53;;;1.40;99.90;;;;;;10412600;28;20602;-86
2022/12/20 02:46:44;;;;;;;36.30;19.07;;;1.40;99.90;;;;;;10380069;28;20624;-86
2022/12/20 02:51:50;;;;;;;34.03;19.80;;;1.50;99.90;;;;;;10379636;28;20443;-86
2022/12/20 02:57:09;;;;;;;30.83;17.70;;;1.50;99.90;;;;;;10374411;28;20252;-86
2022/12/20 03:02:12;;;;;;;32.20;19.23;;;1.50;99.90;;;;;;10368439;28;20219;-86
2022/12/20 03:07:15;;;;;;;41.60;21.00;;;1.50;99.90;;;;;;10393025;28;20207;-86
2022/12/20 03:12:18;;;;;;;29.43;17.43;;;1.70;99.90;;;;;;10393092;28;20274;-86
2022/12/20 03:17:20;;;;;;;32.70;17.73;;;1.70;99.90;;;;;;10390572;28;20228;-86
2022/12/20 03:22:23;;;;;;;30.43;16.90;;;1.70;99.90;;;;;;10352959;28;20196;-86
2022/12/20 03:27:27;;;;;;;30.87;18.77;;;1.70;99.90;;;;;;10388715;28;20273;-86
2022/12/20 03:32:31;;;;;;;32.73;18.40;;;1.60;99.90;;;;;;10392901;28;20213;-86
2022/12/20 03:37:33;;;;;;;31.50;17.13;;;1.50;99.90;;;;;;10393056;28;20277;-86
2022/12/20 03:42:38;;;;;;;28.70;17.07;;;1.50;99.90;;;;;;10375003;28;20203;-86
2022/12/20 03:47:41;;;;;;;27.13;15.70;;;1.60;99.90;;;;;;10383804;28;20208;-86
2022/12/20 03:52:44;;;;;;;29.50;17.03;;;1.60;99.90;;;;;;10371928;28;20200;-86
2022/12/20 03:57:47;;;;;;;30.77;17.30;;;1.70;99.90;;;;;;10392110;28;20313;-86
2022/12/20 04:03:01;;;;;;;31.10;18.33;;;1.80;99.90;;;;;;10376642;28;20203;-86
2022/12/20 04:08:05;;;;;;;31.17;20.13;;;1.80;99.90;;;;;;10374802;28;20491;-86
2022/12/20 04:13:07;;;;;;;30.40;18.17;;;1.80;99.90;;;;;;10391286;28;20215;-85
2022/12/20 04:18:10;;;;;;;30.40;18.47;;;1.80;99.90;;;;;;10375962;28;20654;-85
2022/12/20 04:23:13;;;;;;;30.00;17.80;;;1.90;99.90;;;;;;10369977;28;20675;-85
2022/12/20 04:28:15;;;;;;;33.03;16.90;;;1.90;99.90;;;;;;10358467;28;20196;-85
2022/12/20 04:33:18;;;;;;;31.60;18.10;;;1.90;99.90;;;;;;10390177;28;20254;-86
2022/12/20 04:38:21;;;;;;;32.10;17.77;;;2.00;99.90;;;;;;10350782;28;20260;-86
2022/12/20 04:43:25;;;;;;;32.60;18.57;;;2.00;99.90;;;;;;10377281;28;20212;-87
2022/12/20 04:48:31;;;;;;;32.33;18.83;;;2.10;99.90;;;;;;10390237;28;20207;-87
2022/12/20 04:53:54;;;;;;;33.13;17.90;;;2.10;99.90;;;;;;10395274;28;20215;-87
2022/12/20 04:59:11;;;;;;;27.63;18.90;;;2.20;99.90;;;;;;10416871;28;20255;-87
2022/12/20 05:04:16;;;;;;;33.33;19.83;;;2.20;99.90;;;;;;10415313;28;20624;-87
2022/12/20 05:09:19;;;;;;;32.50;19.23;;;2.20;99.90;;;;;;10397827;28;20207;-87
2022/12/20 05:14:23;;;;;;;29.00;16.93;;;2.20;99.90;;;;;;10397085;28;20282;-88
2022/12/20 05:19:26;;;;;;;32.30;18.27;;;2.20;99.90;;;;;;10381286;28;20231;-87
2022/12/20 05:29:59;;;;;;;30.20;19.10;;;2.10;99.90;;;;;;10387756;28;20243;-87
2022/12/20 05:35:03;;;;;;;41.13;23.87;;;2.10;99.90;;;;;;10371297;28;20712;-87
2022/12/20 05:40:08;;;;;;;44.10;25.27;;;2.00;99.90;;;;;;10395503;28;20756;-87
2022/12/20 05:45:11;;;;;;;51.27;29.17;;;1.90;99.90;;;;;;10355608;28;20294;-87
2022/12/20 05:50:34;;;;;;;49.73;26.77;;;2.00;99.90;;;;;;10376267;28;20590;-87
2022/12/20 05:56:15;;;;;;;48.90;25.40;;;2.00;99.90;;;;;;10370095;28;20791;-87
2022/12/20 06:01:18;;;;;;;36.93;21.57;;;1.90;99.90;;;;;;10356206;28;20255;-89
2022/12/20 06:06:20;;;;;;;36.37;20.63;;;1.70;99.90;;;;;;10354957;28;20204;-88
2022/12/20 06:11:23;;;;;;;29.13;17.53;;;1.60;99.90;;;;;;10380377;28;20685;-89
2022/12/20 06:16:37;;;;;;;35.93;20.27;;;1.60;99.90;;;;;;10362512;28;20301;-87
2022/12/20 06:21:42;;;;;;;37.97;22.20;;;1.60;99.90;;;;;;10348110;28;20200;-87
2022/12/20 06:26:47;;;;;;;38.80;21.67;;;1.50;99.90;;;;;;10392320;28;20289;-89
2022/12/20 06:31:54;;;;;;;16.00;9.73;;;1.60;99.90;;;;;;10384702;28;20239;-88
2022/12/20 06:36:56;;;;;;;30.07;16.73;;;2.30;99.90;;;;;;10384268;28;20293;-87
2022/12/20 06:42:03;;;;;;;69.27;34.57;;;2.60;99.90;;;;;;10369057;28;20231;-88
2022/12/20 06:47:08;;;;;;;70.43;36.03;;;3.70;99.90;;;;;;10376470;28;20212;-86
2022/12/20 06:52:13;;;;;;;61.57;31.50;;;3.70;99.90;;;;;;10363405;28;20196;-87
2022/12/20 06:57:20;;;;;;;57.63;29.77;;;3.30;99.90;;;;;;10379234;28;20313;-86
2022/12/20 07:02:25;;;;;;;56.50;30.27;;;3.00;99.90;;;;;;10368029;28;20228;-87
2022/12/20 07:07:29;;;;;;;42.60;23.57;;;2.80;99.90;;;;;;10386382;28;20244;-87
2022/12/20 07:12:32;;;;;;;41.07;24.10;;;2.70;99.90;;;;;;10394461;28;20228;-86
2022/12/20 07:17:37;;;;;;;38.87;24.77;;;2.70;99.90;;;;;;10391951;28;20244;-87
2022/12/20 07:22:40;;;;;;;44.47;25.53;;;2.60;99.90;;;;;;10388995;28;20224;-87
2022/12/20 07:28:03;;;;;;;44.87;24.93;;;2.60;99.90;;;;;;10402846;28;20686;-87
2022/12/20 07:33:06;;;;;;;49.70;26.53;;;2.50;99.90;;;;;;10357231;28;20266;-87
2022/12/20 07:38:09;;;;;;;58.87;30.03;;;2.60;99.90;;;;;;10370532;28;20301;-87
2022/12/20 07:43:11;;;;;;;47.17;26.03;;;2.60;99.90;;;;;;10374860;28;20208;-87
2022/12/20 07:48:14;;;;;;;51.43;25.13;;;2.60;99.90;;;;;;10410087;28;20737;-87
2022/12/20 07:53:25;;;;;;;63.10;30.07;;;2.60;99.90;;;;;;10391162;28;20238;-86
2022/12/20 07:58:29;;;;;;;57.40;29.40;;;2.60;99.90;;;;;;10408566;28;20646;-86
2022/12/20 08:03:38;;;;;;;54.43;27.43;;;2.40;99.90;;;;;;10392762;28;20226;-88
2022/12/20 08:08:50;;;;;;;47.47;28.10;;;2.50;99.90;;;;;;10405385;28;20288;-88
2022/12/20 08:13:52;;;;;;;41.00;23.57;;;2.50;99.90;;;;;;10383681;28;20684;-88
2022/12/20 08:18:59;;;;;;;34.23;19.90;;;2.70;99.90;;;;;;10394056;28;20308;-88
2022/12/20 08:24:02;;;;;;;41.17;23.67;;;2.60;99.90;;;;;;10405610;28;20289;-88
2022/12/20 08:29:04;;;;;;;48.90;26.77;;;2.70;99.90;;;;;;10390452;28;20227;-89
2022/12/20 08:34:08;;;;;;;47.17;26.60;;;3.00;99.90;;;;;;10373417;28;20424;-88
2022/12/20 08:39:11;;;;;;;54.60;27.90;;;3.10;99.90;;;;;;10373402;28;20243;-89
2022/12/20 08:44:14;;;;;;;46.57;27.50;;;3.40;99.90;;;;;;10390252;28;20259;-89
2022/12/20 08:49:17;;;;;;;48.37;26.47;;;3.40;99.90;;;;;;10402281;28;20284;-89
2022/12/20 08:54:26;;;;;;;46.87;25.87;;;3.40;99.90;;;;;;10389434;28;20254;-88
2022/12/20 08:59:40;;;;;;;59.10;28.87;;;3.40;99.90;;;;;;10378457;28;20277;-89
2022/12/20 09:04:43;;;;;;;42.67;23.83;;;3.40;99.90;;;;;;10382280;28;20235;-88
2022/12/20 09:09:46;;;;;;;49.93;26.80;;;3.40;99.90;;;;;;10404053;28;20231;-88
2022/12/20 09:14:48;;;;;;;45.83;25.43;;;3.40;99.90;;;;;;10379073;28;20231;-88
2022/12/20 09:19:51;;;;;;;39.40;23.47;;;3.40;99.90;;;;;;10370336;28;20231;-88
2022/12/20 09:24:54;;;;;;;39.20;22.33;;;3.40;99.90;;;;;;10392896;28;20255;-89
2022/12/20 09:29:56;;;;;;;56.37;32.13;;;3.50;99.90;;;;;;10372753;28;20231;-87
2022/12/20 09:34:59;;;;;;;50.53;27.13;;;3.60;99.90;;;;;;10355731;28;20278;-86
2022/12/20 09:40:01;;;;;;;44.57;23.77;;;3.70;99.90;;;;;;10390919;28;20228;-88
2022/12/20 09:45:11;;;;;;;39.97;21.83;;;4.00;99.90;;;;;;10396998;28;20258;-87
2022/12/20 09:50:19;;;;;;;44.17;26.17;;;5.10;99.90;;;;;;10365654;28;20273;-87
2022/12/20 09:55:42;;;;;;;46.07;27.13;;;5.10;99.90;;;;;;10399339;28;20239;-87
2022/12/20 10:00:47;;;;;;;40.23;21.50;;;4.80;99.90;;;;;;10392139;28;20644;-87
2022/12/20 10:06:19;;;;;;;39.53;21.87;;;5.00;99.90;;;;;;10379555;28;20286;-88
2022/12/20 10:11:56;;;;;;;36.20;22.63;;;5.20;99.90;;;;;;10382953;28;20231;-88
2022/12/20 10:17:09;;;;;;;52.33;27.47;;;5.20;99.90;;;;;;10407425;28;20305;-89
2022/12/20 10:22:16;;;;;;;54.33;29.83;;;5.00;99.90;;;;;;10386752;28;20985;-88
2022/12/20 10:27:20;;;;;;;46.13;25.10;;;4.80;99.90;;;;;;10406513;28;20231;-87
2022/12/20 10:32:23;;;;;;;64.37;30.43;;;4.80;99.90;;;;;;10393463;28;20235;-87
2022/12/20 10:37:29;;;;;;;55.83;30.80;;;4.90;99.90;;;;;;10397021;28;20259;-86
2022/12/20 10:42:37;;;;;;;48.63;27.60;;;5.00;99.90;;;;;;10396981;28;20250;-87
2022/12/20 10:47:43;;;;;;;43.67;25.87;;;5.00;99.90;;;;;;10408579;28;20294;-87
2022/12/20 10:53:10;;;;;;;40.33;23.33;;;5.10;99.90;;;;;;10392645;28;20231;-87
2022/12/20 10:58:32;;;;;;;39.37;20.70;;;5.00;99.90;;;;;;10391663;28;20312;-87
2022/12/20 11:03:49;;;;;;;41.67;23.53;;;4.90;99.90;;;;;;10388425;28;20235;-87
2022/12/20 11:08:52;;;;;;;45.77;24.83;;;4.90;99.90;;;;;;10401116;28;20358;-87
2022/12/20 11:14:14;;;;;;;36.57;20.43;;;4.80;99.90;;;;;;10361638;28;20302;-87
2022/12/20 11:19:41;;;;;;;43.90;24.90;;;5.60;99.90;;;;;;10400058;28;20243;-87
2022/12/20 11:24:48;;;;;;;42.53;24.40;;;5.70;99.90;;;;;;10395082;28;20282;-87
2022/12/20 11:30:16;;;;;;;47.13;26.07;;;5.30;99.90;;;;;;10389294;28;20231;-87
2022/12/20 11:35:46;;;;;;;48.13;27.37;;;5.10;99.90;;;;;;10388250;28;20231;-85
2022/12/20 11:40:48;;;;;;;53.63;28.83;;;5.40;99.90;;;;;;10394889;28;20270;-86
2022/12/20 11:46:25;;;;;;;51.53;26.30;;;5.30;99.90;;;;;;10392757;28;20640;-86
2022/12/20 11:51:42;;;;;;;50.63;28.33;;;5.30;99.90;;;;;;10391255;28;20636;-86
2022/12/20 11:56:49;;;;;;;50.77;27.13;;;5.20;99.90;;;;;;10389425;28;20313;-85
2022/12/20 12:02:11;;;;;;;55.57;28.30;;;5.10;99.90;;;;;;10383125;28;20309;-85
2022/12/20 12:07:25;;;;;;;52.87;27.40;;;5.10;99.90;;;;;;10399454;28;20293;-85
2022/12/20 12:12:56;;;;;;;48.80;27.00;;;5.00;99.90;;;;;;10398106;28;20234;-86
2022/12/20 12:18:02;;;;;;;47.03;25.60;;;4.90;99.90;;;;;;10401644;28;20247;-86
2022/12/20 12:23:28;;;;;;;55.33;29.77;;;5.30;99.90;;;;;;10402249;28;20262;-85
2022/12/20 12:28:32;;;;;;;76.20;37.27;;;5.60;99.90;;;;;;10402221;28;20683;-86
2022/12/20 12:33:41;;;;;;;66.13;33.50;;;5.30;99.90;;;;;;10376659;28;20220;-85
2022/12/20 12:38:55;;;;;;;41.57;25.60;;;5.20;99.90;;;;;;10393623;28;20306;-85
2022/12/20 12:44:19;;;;;;;48.73;26.93;;;5.10;99.90;;;;;;10397123;28;20234;-85
2022/12/20 12:49:26;;;;;;;45.30;26.07;;;5.10;99.90;;;;;;10386260;28;20675;-85
2022/12/20 12:54:38;;;;;;;50.40;25.97;;;5.00;99.90;;;;;;10371698;28;20227;-85
2022/12/20 13:06:29;;;;;;;55.30;27.07;;;4.80;99.90;;;;;;10391091;28;20218;-87
2022/12/20 13:11:31;;;;;;;47.43;26.13;;;4.80;99.90;;;;;;10394579;28;20263;-85
2022/12/20 13:16:34;;;;;;;34.80;19.77;;;4.80;99.90;;;;;;10399543;28;21525;-85
2022/12/20 13:22:18;;;;;;;34.33;19.67;;;4.80;99.90;;;;;;10408300;28;20288;-85
2022/12/20 13:27:26;;;;;;;43.73;25.03;;;5.40;99.90;;;;;;10378603;28;20239;-85
2022/12/20 13:32:47;;;;;;;42.33;24.87;;;5.30;99.90;;;;;;10401277;28;20297;-85
2022/12/20 13:38:05;;;;;;;49.17;26.10;;;5.00;99.90;;;;;;10384058;28;20254;-86
2022/12/20 13:43:23;;;;;;;42.87;23.87;;;4.90;99.90;;;;;;10395232;28;20235;-85
2022/12/20 13:48:32;;;;;;;52.03;27.93;;;4.70;99.90;;;;;;10380655;28;20266;-85
2022/12/20 13:53:35;;;;;;;58.87;32.43;;;4.50;99.90;;;;;;10407983;28;20701;-85
2022/12/20 13:58:42;;;;;;;52.13;31.23;;;4.20;99.90;;;;;;10369088;28;20271;-85
2022/12/20 14:03:46;;;;;;;61.93;31.30;;;4.00;99.90;;;;;;10364901;28;20282;-85
2022/12/20 14:08:51;;;;;;;49.00;27.30;;;3.80;99.90;;;;;;10346218;28;20310;-85
2022/12/20 14:13:59;;;;;;;48.73;29.23;;;3.70;99.90;;;;;;10344960;28;20248;-85
2022/12/20 14:19:05;;;;;;;55.37;29.00;;;3.60;99.90;;;;;;10355156;28;20255;-85
2022/12/20 14:24:15;;;;;;;46.63;25.00;;;3.60;99.90;;;;;;10356584;28;20231;-85
2022/12/20 14:29:23;;;;;;;45.03;24.83;;;3.50;99.90;;;;;;10334319;28;20677;-85
2022/12/20 14:34:29;;;;;;;44.07;22.80;;;3.40;99.90;;;;;;10363910;28;20228;-86
2022/12/20 14:39:36;;;;;;;53.03;28.43;;;4.10;99.90;;;;;;10314214;28;20256;-86
2022/12/20 14:44:39;;;;;;;55.77;30.70;;;5.20;99.90;;;;;;10379567;28;20231;-86
2022/12/20 14:50:07;;;;;;;58.57;32.67;;;4.70;99.90;;;;;;10376335;28;20679;-86
2022/12/20 14:55:21;;;;;;;57.60;31.47;;;4.10;99.90;;;;;;10378008;28;20215;-85
2022/12/20 15:00:26;;;;;;;52.13;28.30;;;3.70;99.90;;;;;;10344346;28;20257;-86
2022/12/20 15:05:37;;;;;;;51.10;27.00;;;3.50;99.90;;;;;;10347491;28;20277;-85
2022/12/20 15:10:51;;;;;;;49.53;28.87;;;3.40;99.90;;;;;;10348194;28;20686;-86
2022/12/20 15:15:54;;;;;;;58.50;28.43;;;3.20;99.90;;;;;;10348189;28;20293;-86
2022/12/20 15:21:30;;;;;;;57.60;31.80;;;3.20;99.90;;;;;;10357386;28;20252;-86
2022/12/20 15:26:33;;;;;;;61.67;34.63;;;3.20;99.90;;;;;;10326061;28;20297;-86
2022/12/20 15:31:36;;;;;;;52.90;28.83;;;3.50;99.90;;;;;;10327678;28;20287;-85
2022/12/20 15:36:38;;;;;;;50.37;27.70;;;3.30;99.90;;;;;;10311640;28;20733;-85
2022/12/20 15:41:46;;;;;;;68.40;34.30;;;3.40;99.90;;;;;;10328366;28;20225;-85
2022/12/20 15:46:49;;;;;;;58.17;32.83;;;3.60;99.90;;;;;;10327768;28;20809;-85
2022/12/20 15:51:53;;;;;;;59.47;33.03;;;3.70;99.90;;;;;;10335605;28;20278;-85
2022/12/20 15:56:58;;;;;;;55.23;29.40;;;4.00;99.90;;;;;;10335763;28;20323;-85
2022/12/20 16:02:00;;;;;;;53.50;30.00;;;5.00;99.90;;;;;;10326173;28;20233;-84
2022/12/20 16:07:04;;;;;;;53.30;28.70;;;4.80;99.90;;;;;;10326827;28;20259;-85
2022/12/20 16:12:17;;;;;;;52.17;27.93;;;4.50;99.90;;;;;;10287597;28;20233;-84
2022/12/20 16:17:20;;;;;;;56.23;31.40;;;4.30;99.90;;;;;;10300134;28;20241;-85
2022/12/20 16:22:25;;;;;;;62.80;34.50;;;4.30;99.90;;;;;;10325989;28;20579;-83
2022/12/20 16:27:27;;;;;;;61.87;34.87;;;4.00;99.90;;;;;;10318109;28;20286;-85
2022/12/20 16:32:31;;;;;;;73.80;37.33;;;3.90;99.90;;;;;;10323133;28;20309;-85
2022/12/20 16:37:34;;;;;;;62.30;33.87;;;3.80;99.90;;;;;;10325393;28;20240;-84
2022/12/20 16:42:40;;;;;;;59.73;33.07;;;3.80;99.90;;;;;;10309145;28;20228;-85
2022/12/20 16:47:44;;;;;;;55.83;31.27;;;3.90;99.90;;;;;;10325373;28;20760;-84
2022/12/20 16:52:49;;;;;;;63.13;31.80;;;3.90;99.90;;;;;;10329915;28;20275;-84
2022/12/20 16:57:52;;;;;;;53.53;30.13;;;3.70;99.90;;;;;;10333360;28;20321;-84
2022/12/20 17:02:56;;;;;;;63.07;31.83;;;3.80;99.90;;;;;;10355718;28;20262;-84
2022/12/20 17:07:59;;;;;;;60.37;31.47;;;3.80;99.90;;;;;;10355891;28;20232;-83
2022/12/20 17:13:01;;;;;;;71.30;41.70;;;3.70;99.90;;;;;;10374483;28;20274;-83
2022/12/20 17:18:04;;;;;;;74.67;41.03;;;3.10;99.90;;;;;;10356940;28;20258;-84
2022/12/20 17:23:14;;;;;;;75.30;40.07;;;3.00;99.90;;;;;;10372909;28;20669;-83
2022/12/20 17:28:34;;;;;;;79.97;41.60;;;2.90;99.90;;;;;;10355968;28;20633;-84
2022/12/20 17:33:37;;;;;;;76.30;41.50;;;2.90;99.90;;;;;;10340441;28;20709;-84
2022/12/20 17:38:39;;;;;;;69.83;38.90;;;2.90;99.90;;;;;;10348170;28;20705;-85
2022/12/20 17:43:42;;;;;;;70.97;38.53;;;2.90;99.90;;;;;;10354016;28;20255;-84
2022/12/20 17:48:46;;;;;;;72.57;40.07;;;3.00;99.90;;;;;;10355246;28;20249;-83
2022/12/20 17:53:50;;;;;;;76.37;40.73;;;3.00;99.90;;;;;;10355606;28;20698;-83
2022/12/20 17:58:54;;;;;;;59.83;29.07;;;3.00;99.90;;;;;;10354920;28;20271;-83
2022/12/20 18:03:58;;;;;;;59.50;30.43;;;3.10;99.90;;;;;;10371549;28;20228;-83
2022/12/20 18:09:13;;;;;;;67.67;37.03;;;3.20;99.90;;;;;;10327454;28;20236;-83
2022/12/20 18:14:16;;;;;;;80.20;43.17;;;3.20;99.90;;;;;;10371752;28;20742;-83
2022/12/20 18:19:19;;;;;;;74.70;40.77;;;3.20;99.90;;;;;;10336961;28;20638;-84
2022/12/20 18:24:21;;;;;;;64.67;31.70;;;3.10;99.90;;;;;;10353712;28;20266;-83
2022/12/20 18:29:24;;;;;;;56.37;27.40;;;3.20;99.90;;;;;;10371863;28;20235;-83
2022/12/20 18:34:26;;;;;;;53.73;26.10;;;3.20;99.90;;;;;;10335870;28;20693;-83
2022/12/20 18:39:29;;;;;;;60.23;30.80;;;3.30;99.90;;;;;;10340452;28;20306;-83
2022/12/20 18:44:35;;;;;;;70.50;35.23;;;3.30;99.90;;;;;;10369914;28;20254;-83
2022/12/20 18:49:37;;;;;;;52.30;27.70;;;3.40;99.90;;;;;;10334748;28;20232;-84
2022/12/20 18:54:40;;;;;;;44.97;25.30;;;3.40;99.90;;;;;;10353792;28;20236;-84
2022/12/20 18:59:43;;;;;;;59.50;35.10;;;3.30;99.90;;;;;;10353252;28;20338;-84
2022/12/20 19:04:45;;;;;;;64.73;36.70;;;3.10;99.90;;;;;;10351307;28;20232;-84
2022/12/20 19:09:48;;;;;;;63.33;35.73;;;3.10;99.90;;;;;;10350864;28;20305;-83
2022/12/20 19:14:50;;;;;;;56.97;35.80;;;3.10;99.90;;;;;;10343918;28;20623;-84
2022/12/20 19:19:53;;;;;;;60.27;34.43;;;3.00;99.90;;;;;;10351372;28;20249;-83
2022/12/20 19:24:56;;;;;;;77.23;38.00;;;3.10;99.90;;;;;;10351833;28;20200;-83
2022/12/20 19:29:59;;;;;;;74.23;36.60;;;3.10;99.90;;;;;;10369077;28;20685;-83
2022/12/20 19:35:02;;;;;;;62.80;33.57;;;3.10;99.90;;;;;;10376065;28;20232;-83
2022/12/20 19:40:24;;;;;;;53.03;27.73;;;3.10;99.90;;;;;;10391048;28;20719;-83
2022/12/20 19:45:27;;;;;;;46.27;25.20;;;3.20;99.90;;;;;;10365612;28;20235;-83
2022/12/20 19:50:29;;;;;;;45.90;26.93;;;3.20;99.90;;;;;;10381009;28;20228;-83
2022/12/20 19:55:32;;;;;;;55.60;26.37;;;3.20;99.90;;;;;;10388294;28;20281;-83
2022/12/20 20:00:34;;;;;;;49.83;27.37;;;3.20;99.90;;;;;;10386324;28;20709;-84
2022/12/20 20:05:40;;;;;;;47.03;25.50;;;3.30;99.90;;;;;;10380342;28;20232;-84
2022/12/20 20:10:43;;;;;;;57.00;29.90;;;3.40;99.90;;;;;;10372399;28;20825;-84
2022/12/20 20:15:50;;;;;;;70.55;35.13;;;3.40;99.90;;;;;;9998124;28;10000461;-84
2022/12/20 20:20:54;;;;;;;83.20;37.90;;;3.40;99.90;;;;;;10035720;28;9999777;-83
2022/12/20 20:25:57;;;;;;;64.47;37.80;;;3.40;99.90;;;;;;10365118;28;20227;-84
2022/12/20 20:31:01;;;;;;;60.43;29.43;;;3.50;99.90;;;;;;10330367;28;20311;-84
2022/12/20 20:36:04;;;;;;;50.13;27.30;;;3.50;99.90;;;;;;10351207;28;20250;-85
2022/12/20 20:41:08;;;;;;;51.50;28.03;;;3.60;99.90;;;;;;10363484;28;20271;-85
2022/12/20 20:46:13;;;;;;;48.33;27.30;;;3.60;99.90;;;;;;10346186;28;20227;-86
2022/12/20 20:51:15;;;;;;;44.57;25.30;;;3.70;99.90;;;;;;10364578;28;20240;-85
2022/12/20 20:56:18;;;;;;;44.70;23.20;;;3.70;99.90;;;;;;10347577;28;20231;-86
2022/12/20 21:01:21;;;;;;;42.37;24.90;;;3.60;99.90;;;;;;10347654;28;20347;-84
2022/12/20 21:06:35;;;;;;;44.07;25.80;;;3.60;99.90;;;;;;10362333;28;20231;-84
2022/12/20 21:11:43;;;;;;;50.53;27.33;;;3.60;99.90;;;;;;10307154;28;20748;-84
2022/12/20 21:16:46;;;;;;;55.57;29.73;;;3.60;99.90;;;;;;10341513;28;20240;-84
2022/12/20 21:21:48;;;;;;;44.93;26.87;;;3.60;99.90;;;;;;10364230;28;20391;-84
2022/12/20 21:26:53;;;;;;;60.00;33.10;;;3.50;99.90;;;;;;10321993;28;20233;-84
2022/12/20 21:31:56;;;;;;;65.27;31.73;;;3.50;99.90;;;;;;10333373;28;20246;-84
2022/12/20 21:36:59;;;;;;;52.83;30.53;;;3.40;99.90;;;;;;10368636;28;20672;-84
2022/12/20 21:42:01;;;;;;;51.70;28.77;;;3.40;99.90;;;;;;10352576;28;20318;-83
2022/12/20 21:47:04;;;;;;;53.10;28.93;;;3.50;99.90;;;;;;10371598;28;20232;-84
2022/12/20 21:52:07;;;;;;;52.93;29.63;;;3.50;99.90;;;;;;10371276;28;20240;-84
2022/12/20 21:57:10;;;;;;;49.50;27.47;;;3.70;99.90;;;;;;10378564;28;20235;-84
2022/12/20 22:02:13;;;;;;;39.00;23.43;;;3.70;99.90;;;;;;10370542;28;20271;-85
2022/12/20 22:07:15;;;;;;;51.97;28.47;;;3.70;99.90;;;;;;10371105;28;20231;-84
2022/12/20 22:12:18;;;;;;;51.87;28.03;;;3.70;99.90;;;;;;10365859;28;20243;-85
2022/12/20 22:17:21;;;;;;;53.67;29.63;;;3.70;99.90;;;;;;10371001;28;20267;-85
2022/12/20 22:22:24;;;;;;;55.33;29.27;;;3.70;99.90;;;;;;10355283;28;20224;-85
2022/12/20 22:27:27;;;;;;;49.97;29.07;;;3.60;99.90;;;;;;10353125;28;20208;-85
2022/12/20 22:32:31;;;;;;;49.97;28.43;;;3.60;99.90;;;;;;10354683;28;20209;-85
2022/12/20 22:37:33;;;;;;;56.37;29.40;;;3.70;99.90;;;;;;10373081;28;20250;-86
2022/12/20 22:42:39;;;;;;;57.97;32.03;;;3.60;99.90;;;;;;10368384;28;20260;-84
2022/12/20 22:47:42;;;;;;;55.23;30.60;;;3.50;99.90;;;;;;10345436;28;20353;-85
2022/12/20 22:52:44;;;;;;;52.90;28.23;;;3.50;99.90;;;;;;10353674;28;20615;-85
2022/12/20 22:57:47;;;;;;;53.10;28.47;;;3.50;99.90;;;;;;10353909;28;21000;-86
2022/12/20 23:02:50;;;;;;;53.77;30.10;;;3.60;99.90;;;;;;10369257;28;20310;-83
2022/12/20 23:07:53;;;;;;;53.00;29.30;;;3.70;99.90;;;;;;10367999;28;20232;-83
2022/12/20 23:18:19;;;;;;;56.33;30.77;;;3.60;99.90;;;;;;10369306;28;20240;-83
2022/12/20 23:23:22;;;;;;;61.63;32.13;;;3.50;99.90;;;;;;10369741;28;20279;-83
2022/12/20 23:28:25;;;;;;;56.40;30.43;;;3.50;99.90;;;;;;10369294;28;20243;-83
2022/12/20 23:33:27;;;;;;;51.50;28.40;;;3.50;99.90;;;;;;10369582;28;20248;-83
2022/12/20 23:38:35;;;;;;;56.30;30.57;;;3.50;99.90;;;;;;10346954;28;20279;-83
2022/12/20 23:43:38;;;;;;;57.47;30.90;;;3.60;99.90;;;;;;10352720;28;20290;-83
2022/12/20 23:48:41;;;;;;;56.23;29.43;;;3.50;99.90;;;;;;10350759;28;20781;-83
2022/12/20 23:53:44;;;;;;;55.67;29.27;;;3.40;99.90;;;;;;10368490;28;20208;-83
2022/12/20 23:58:53;;;;;;;45.13;26.47;;;3.40;99.90;;;;;;10367573;28;20337;-83
